createdAt,value
2022-10-20T00:01:37.369Z,2.78
2022-10-20T00:04:04.978Z,2.83
2022-10-20T00:06:33.010Z,2.90
2022-10-20T00:09:01.461Z,1.90
2022-10-20T00:11:29.389Z,2.50
2022-10-20T00:13:57.798Z,2.10
2022-10-20T00:16:27.384Z,2.08
2022-10-20T00:18:55.822Z,2.03
2022-10-20T00:21:24.265Z,2.72
2022-10-20T00:23:51.885Z,2.35
2022-10-20T00:26:20.249Z,2.20
2022-10-20T00:28:48.425Z,1.92
2022-10-20T00:31:16.157Z,2.08
2022-10-20T00:33:44.845Z,1.88
2022-10-20T00:36:13.360Z,1.80
2022-10-20T00:38:40.737Z,1.80
2022-10-20T00:41:08.144Z,1.98
2022-10-20T00:43:42.477Z,1.92
2022-10-20T00:46:11.790Z,2.17
2022-10-20T00:48:39.459Z,1.95
2022-10-20T00:51:08.215Z,2.08
2022-10-20T00:53:35.648Z,2.00
2022-10-20T00:56:03.338Z,1.88
2022-10-20T00:58:30.773Z,2.47
2022-10-20T01:00:59.443Z,2.20
2022-10-20T01:03:28.794Z,2.10
2022-10-20T01:05:56.148Z,2.13
2022-10-20T01:08:24.875Z,1.95
2022-10-20T01:10:54.720Z,1.70
2022-10-20T01:13:27.028Z,2.05
2022-10-20T01:15:58.211Z,1.88
2022-10-20T01:18:30.352Z,1.75
2022-10-20T01:21:06.144Z,2.00
2022-10-20T01:23:48.461Z,2.03
2022-10-20T01:26:31.927Z,2.03
2022-10-20T01:29:01.774Z,1.65
2022-10-20T01:31:31.128Z,1.70
2022-10-20T01:34:03.542Z,1.90
2022-10-20T01:36:35.031Z,1.98
2022-10-20T01:39:03.351Z,1.75
2022-10-20T01:41:34.090Z,1.80
2022-10-20T01:44:04.276Z,1.95
2022-10-20T01:46:32.676Z,1.80
2022-10-20T01:49:01.252Z,1.65
2022-10-20T01:51:28.676Z,2.03
2022-10-20T01:53:56.060Z,2.00
2022-10-20T01:56:26.779Z,1.77
2022-10-20T01:59:17.958Z,1.73
2022-10-20T02:01:55.940Z,1.70
2022-10-20T02:04:26.608Z,1.88
2022-10-20T02:06:57.543Z,2.05
2022-10-20T02:09:29.311Z,2.35
2022-10-20T02:11:59.405Z,1.67
2022-10-20T02:14:27.364Z,1.88
2022-10-20T02:16:58.875Z,2.22
2022-10-20T02:19:28.005Z,1.83
2022-10-20T02:21:56.283Z,1.95
2022-10-20T02:24:25.878Z,1.88
2022-10-20T02:26:54.092Z,1.70
2022-10-20T02:29:23.902Z,2.10
2022-10-20T02:31:51.246Z,2.00
2022-10-20T02:34:19.935Z,1.77
2022-10-20T02:36:47.471Z,2.17
2022-10-20T02:39:14.893Z,1.98
2022-10-20T02:41:42.228Z,2.08
2022-10-20T02:44:09.609Z,2.08
2022-10-20T02:46:36.956Z,1.60
2022-10-20T02:49:04.336Z,2.13
2022-10-20T02:51:33.069Z,1.85
2022-10-20T02:54:00.421Z,2.05
2022-10-20T02:56:30.307Z,1.90
2022-10-20T02:58:58.532Z,1.95
2022-10-20T03:01:25.990Z,2.03
2022-10-20T03:03:58.495Z,2.30
2022-10-20T03:06:25.911Z,1.90
2022-10-20T03:08:54.730Z,2.33
2022-10-20T03:11:22.145Z,2.42
2022-10-20T03:13:49.495Z,2.22
2022-10-20T03:16:16.891Z,1.90
2022-10-20T03:18:44.236Z,1.95
2022-10-20T03:21:11.612Z,2.13
2022-10-20T03:23:39.015Z,2.00
2022-10-20T03:26:08.786Z,2.25
2022-10-20T03:28:36.132Z,2.05
2022-10-20T03:31:03.461Z,1.98
2022-10-20T03:33:30.823Z,1.80
2022-10-20T03:35:58.407Z,2.20
2022-10-20T03:38:25.796Z,2.00
2022-10-20T03:40:53.162Z,2.38
2022-10-20T03:43:22.060Z,1.92
2022-10-20T03:45:49.438Z,2.10
2022-10-20T03:48:16.904Z,1.98
2022-10-20T03:50:44.507Z,1.98
2022-10-20T03:53:13.256Z,1.75
2022-10-20T03:55:40.590Z,2.10
2022-10-20T03:58:07.961Z,2.10
2022-10-20T04:00:36.662Z,2.13
2022-10-20T04:03:04.108Z,2.13
2022-10-20T04:05:31.531Z,2.13
2022-10-20T04:07:58.898Z,2.50
2022-10-20T04:10:26.286Z,2.00
2022-10-20T04:12:53.675Z,1.95
2022-10-20T04:15:21.029Z,2.25
2022-10-20T04:17:49.692Z,2.65
2022-10-20T04:20:17.322Z,2.10
2022-10-20T04:22:44.871Z,2.38
2022-10-20T04:25:12.660Z,2.20
2022-10-20T04:27:40.046Z,2.55
2022-10-20T04:30:08.281Z,2.13
2022-10-20T04:32:35.695Z,2.15
2022-10-20T04:35:04.553Z,2.25
2022-10-20T04:37:31.971Z,2.38
2022-10-20T04:39:59.330Z,2.13
2022-10-20T04:42:26.700Z,2.20
2022-10-20T04:44:54.080Z,2.30
2022-10-20T04:47:21.464Z,2.13
2022-10-20T04:49:48.870Z,2.10
2022-10-20T04:52:20.617Z,2.72
2022-10-20T04:54:47.947Z,2.47
2022-10-20T04:57:15.306Z,2.90
2022-10-20T04:59:42.661Z,2.85
2022-10-20T05:02:11.334Z,3.00
2022-10-20T05:04:38.688Z,3.10
2022-10-20T05:07:06.044Z,2.75
2022-10-20T05:09:34.811Z,3.17
2022-10-20T05:12:02.248Z,3.17
2022-10-20T05:14:29.710Z,2.90
2022-10-20T05:16:57.119Z,2.83
2022-10-20T05:19:24.560Z,2.58
2022-10-20T05:21:51.928Z,2.92
2022-10-20T05:24:21.440Z,3.03
2022-10-20T05:26:51.639Z,3.22
2022-10-20T05:29:18.991Z,3.13
2022-10-20T05:31:46.367Z,3.33
2022-10-20T05:34:13.727Z,3.08
2022-10-20T05:36:41.113Z,2.92
2022-10-20T05:39:08.502Z,3.20
2022-10-20T05:41:38.730Z,2.90
2022-10-20T05:44:08.814Z,3.40
2022-10-20T05:46:41.027Z,3.20
2022-10-20T05:49:08.667Z,3.30
2022-10-20T05:51:36.931Z,2.85
2022-10-20T05:54:04.577Z,3.15
2022-10-20T05:56:33.497Z,3.67
2022-10-20T05:59:00.867Z,3.42
2022-10-20T06:01:39.590Z,3.17
2022-10-20T06:04:08.524Z,4.05
2022-10-20T06:06:36.424Z,3.78
2022-10-20T06:09:06.335Z,4.30
2022-10-20T06:11:38.378Z,4.05
2022-10-20T06:14:07.047Z,3.78
2022-10-20T06:16:35.871Z,4.30
2022-10-20T06:19:03.414Z,4.32
2022-10-20T06:21:31.684Z,4.80
2022-10-20T06:23:59.500Z,4.22
2022-10-20T06:26:29.451Z,4.15
2022-10-20T06:29:03.565Z,4.38
2022-10-20T06:31:32.446Z,4.35
2022-10-20T06:34:01.343Z,5.22
2022-10-20T06:36:28.934Z,4.30
2022-10-20T06:38:56.797Z,4.43
2022-10-20T06:41:24.741Z,4.40
2022-10-20T06:43:57.652Z,4.13
2022-10-20T06:46:25.154Z,4.43
2022-10-20T06:48:57.738Z,4.50
2022-10-20T06:51:27.874Z,4.28
2022-10-20T06:53:55.292Z,4.43
2022-10-20T06:56:23.862Z,5.22
2022-10-20T06:58:52.431Z,5.05
2022-10-20T07:01:20.770Z,5.10
2022-10-20T07:03:48.991Z,5.68
2022-10-20T07:06:17.148Z,5.38
2022-10-20T07:08:46.397Z,5.47
2022-10-20T07:11:14.802Z,5.28
2022-10-20T07:13:42.303Z,4.95
2022-10-20T07:16:10.695Z,4.93
2022-10-20T07:18:38.204Z,5.00
2022-10-20T07:21:06.403Z,4.80
2022-10-20T07:23:34.879Z,5.80
2022-10-20T07:26:03.946Z,5.00
2022-10-20T07:28:31.312Z,4.97
2022-10-20T07:30:59.706Z,5.22
2022-10-20T07:33:27.074Z,5.15
2022-10-20T07:35:54.453Z,5.47
2022-10-20T07:38:21.758Z,5.13
2022-10-20T07:40:49.120Z,5.18
2022-10-20T07:43:17.812Z,5.45
2022-10-20T07:45:45.260Z,4.93
2022-10-20T07:48:12.660Z,4.57
2022-10-20T07:50:40.690Z,4.97
2022-10-20T07:53:08.055Z,5.00
2022-10-20T07:55:39.384Z,5.22
2022-10-20T07:58:06.905Z,5.68
2022-10-20T08:00:35.672Z,4.40
2022-10-20T08:03:03.048Z,5.22
2022-10-20T08:05:30.441Z,4.85
2022-10-20T08:07:58.315Z,5.05
2022-10-20T08:10:26.149Z,4.55
2022-10-20T08:12:53.560Z,4.22
2022-10-20T08:15:31.446Z,4.70
2022-10-20T08:18:00.098Z,3.95
2022-10-20T08:20:42.444Z,4.07
2022-10-20T08:23:09.915Z,4.90
2022-10-20T08:25:37.314Z,4.50
2022-10-20T08:28:04.743Z,4.45
2022-10-20T08:30:32.227Z,4.00
2022-10-20T08:33:00.871Z,4.00
2022-10-20T08:35:28.275Z,4.50
2022-10-20T08:37:55.654Z,4.63
2022-10-20T08:40:25.257Z,4.88
2022-10-20T08:42:52.941Z,4.50
2022-10-20T08:45:21.184Z,4.15
2022-10-20T08:47:49.862Z,5.07
2022-10-20T08:50:19.397Z,4.60
2022-10-20T08:52:48.320Z,4.45
2022-10-20T08:57:52.736Z,4.38
2022-10-20T09:00:21.756Z,4.40
2022-10-20T09:02:49.987Z,3.83
2022-10-20T09:05:21.344Z,4.03
2022-10-20T09:07:49.905Z,4.22
2022-10-20T09:10:23.753Z,4.50
2022-10-20T09:12:51.494Z,3.70
2022-10-20T09:15:19.638Z,4.60
2022-10-20T09:17:48.433Z,4.40
2022-10-20T09:20:19.034Z,4.03
2022-10-20T09:22:48.106Z,3.70
2022-10-20T09:25:17.075Z,3.45
2022-10-20T09:27:45.220Z,3.95
2022-10-20T09:30:17.248Z,3.80
2022-10-20T09:32:47.098Z,3.55
2022-10-20T09:35:26.020Z,3.78
2022-10-20T09:37:56.301Z,3.20
2022-10-20T09:40:24.134Z,3.17
2022-10-20T09:42:53.663Z,3.40
2022-10-20T09:45:22.417Z,2.83
2022-10-20T09:47:51.425Z,2.75
2022-10-20T09:50:20.167Z,3.00
2022-10-20T09:52:48.370Z,2.88
2022-10-20T09:55:27.319Z,3.58
2022-10-20T09:57:55.216Z,2.53
2022-10-20T10:00:36.932Z,2.42
2022-10-20T10:03:09.585Z,2.80
2022-10-20T10:05:37.157Z,2.78
2022-10-20T10:08:04.613Z,2.10
2022-10-20T10:10:33.358Z,2.10
2022-10-20T10:13:02.532Z,2.38
2022-10-20T10:15:31.499Z,2.40
2022-10-20T10:17:59.398Z,1.90
2022-10-20T10:20:30.167Z,2.30
2022-10-20T10:23:08.280Z,2.08
2022-10-20T10:25:37.014Z,2.17
2022-10-20T10:28:06.905Z,2.38
2022-10-20T10:30:35.011Z,2.35
2022-10-20T10:33:02.530Z,1.92
2022-10-20T10:35:31.974Z,1.98
2022-10-20T10:37:59.816Z,2.55
2022-10-20T10:40:31.687Z,1.90
2022-10-20T10:43:06.554Z,1.75
2022-10-20T10:45:50.669Z,2.20
2022-10-20T10:48:36.782Z,1.98
2022-10-20T10:51:05.703Z,2.03
2022-10-20T10:53:41.006Z,2.10
2022-10-20T10:56:10.935Z,2.25
2022-10-20T10:58:44.114Z,2.10
2022-10-20T11:01:20.204Z,2.17
2022-10-20T11:03:57.801Z,1.60
2022-10-20T11:06:29.546Z,3.55
2022-10-20T11:09:01.960Z,1.75
2022-10-20T11:11:35.661Z,1.80
2022-10-20T11:14:11.828Z,1.92
2022-10-20T11:16:41.663Z,1.63
2022-10-20T11:19:17.526Z,1.58
2022-10-20T11:21:51.921Z,1.50
2022-10-20T11:24:28.035Z,1.40
2022-10-20T11:27:00.089Z,1.63
2022-10-20T11:29:32.370Z,1.30
2022-10-20T11:32:05.784Z,1.45
2022-10-20T11:34:37.540Z,1.48
2022-10-20T11:37:07.555Z,1.20
2022-10-20T11:39:38.822Z,1.25
2022-10-20T11:42:13.948Z,1.42
2022-10-20T11:44:42.949Z,1.27
2022-10-20T11:47:12.918Z,1.30
2022-10-20T11:49:41.231Z,1.30
2022-10-20T11:52:16.131Z,1.50
2022-10-20T11:55:10.687Z,1.20
2022-10-20T11:57:46.055Z,1.20
2022-10-20T12:03:13.488Z,1.33
2022-10-20T12:05:55.482Z,1.42
2022-10-20T12:08:32.141Z,1.35
2022-10-20T12:11:04.318Z,1.42
2022-10-20T12:13:36.388Z,1.50
2022-10-20T12:16:05.324Z,1.40
2022-10-20T12:18:33.449Z,1.15
2022-10-20T12:21:01.895Z,1.30
2022-10-20T12:23:48.874Z,1.48
2022-10-20T12:26:35.016Z,1.52
2022-10-20T12:29:08.080Z,1.40
2022-10-20T12:31:53.595Z,1.17
2022-10-20T12:34:25.014Z,1.75
2022-10-20T12:36:52.423Z,1.52
2022-10-20T12:39:20.786Z,1.20
2022-10-20T12:42:10.070Z,1.50
2022-10-20T12:44:42.468Z,1.60
2022-10-20T12:47:10.182Z,1.20
2022-10-20T12:49:40.194Z,1.42
2022-10-20T12:52:08.439Z,1.55
2022-10-20T12:54:38.979Z,1.50
2022-10-20T12:57:07.328Z,3.88
2022-10-20T12:59:40.230Z,1.30
2022-10-20T13:02:20.413Z,1.30
2022-10-20T13:04:56.160Z,1.60
2022-10-20T13:07:38.812Z,1.40
2022-10-20T13:10:21.304Z,1.40
2022-10-20T13:12:48.650Z,1.63
2022-10-20T13:15:18.354Z,1.75
2022-10-20T13:17:52.090Z,1.73
2022-10-20T13:20:25.292Z,1.42
2022-10-20T13:22:53.733Z,1.42
2022-10-20T13:25:30.388Z,1.83
2022-10-20T13:28:05.304Z,1.40
2022-10-20T13:30:33.847Z,1.45
2022-10-20T13:33:33.361Z,1.48
2022-10-20T13:35:55.443Z,1.40
2022-10-20T13:38:25.369Z,1.70
2022-10-20T13:40:57.991Z,1.48
2022-10-20T13:43:30.277Z,1.60
2022-10-20T13:46:05.915Z,1.42
2022-10-20T13:48:40.413Z,1.73
2022-10-20T13:51:13.318Z,1.73
2022-10-20T13:53:44.879Z,1.80
2022-10-20T13:56:21.185Z,1.40
2022-10-20T13:59:01.908Z,1.58
2022-10-20T14:01:34.559Z,1.48
2022-10-20T14:04:02.023Z,1.40
2022-10-20T14:06:31.548Z,1.60
2022-10-20T14:08:59.605Z,1.30
2022-10-20T14:11:30.126Z,1.40
2022-10-20T14:13:57.894Z,1.55
2022-10-20T14:16:27.696Z,1.48
2022-10-20T14:19:02.027Z,1.48
2022-10-20T14:21:30.770Z,1.63
2022-10-20T14:24:01.965Z,1.52
2022-10-20T14:26:29.658Z,1.55
2022-10-20T14:28:57.083Z,1.42
2022-10-20T14:31:25.025Z,1.40
2022-10-20T14:33:53.336Z,1.30
2022-10-20T14:36:22.826Z,1.35
2022-10-20T14:38:52.658Z,1.25
2022-10-20T14:41:26.732Z,1.35
2022-10-20T14:43:55.352Z,1.40
2022-10-20T14:46:26.770Z,1.40
2022-10-20T14:48:54.126Z,1.25
2022-10-20T14:51:39.215Z,1.60
2022-10-20T14:54:24.025Z,1.50
2022-10-20T14:56:52.175Z,1.30
2022-10-20T14:59:21.766Z,1.40
2022-10-20T15:02:01.533Z,1.58
2022-10-20T15:04:32.160Z,1.75
2022-10-20T15:07:03.271Z,2.15
2022-10-20T15:09:32.919Z,1.83
2022-10-20T15:12:05.102Z,1.85
2022-10-20T15:14:32.520Z,1.65
2022-10-20T15:16:59.858Z,1.90
2022-10-20T15:19:31.974Z,1.85
2022-10-20T15:22:00.549Z,1.60
2022-10-20T15:24:28.317Z,2.00
2022-10-20T15:26:58.062Z,1.95
2022-10-20T15:29:25.795Z,1.75
2022-10-20T15:31:53.610Z,2.10
2022-10-20T15:34:21.235Z,2.08
2022-10-20T15:36:50.367Z,1.98
2022-10-20T15:39:18.634Z,2.03
2022-10-20T15:41:47.974Z,2.20
2022-10-20T15:44:21.910Z,2.10
2022-10-20T15:46:50.158Z,2.38
2022-10-20T15:49:17.522Z,2.63
2022-10-20T15:51:45.474Z,2.30
2022-10-20T15:54:14.142Z,2.20
2022-10-20T15:56:41.531Z,2.63
2022-10-20T15:59:08.906Z,2.45
2022-10-20T16:01:37.755Z,2.42
2022-10-20T16:04:16.200Z,2.58
2022-10-20T16:06:44.228Z,2.50
2022-10-20T16:09:14.996Z,2.60
2022-10-20T16:11:43.649Z,2.30
2022-10-20T16:14:10.991Z,3.00
2022-10-20T16:16:39.624Z,2.90
2022-10-20T16:19:06.945Z,3.03
2022-10-20T16:21:34.651Z,2.90
2022-10-20T16:24:02.005Z,2.70
2022-10-20T16:26:29.446Z,2.78
2022-10-20T16:28:56.861Z,2.83
2022-10-20T16:31:24.262Z,2.80
2022-10-20T16:33:52.985Z,3.15
2022-10-20T16:36:21.723Z,2.75
2022-10-20T16:38:49.206Z,2.78
2022-10-20T16:41:17.178Z,2.88
2022-10-20T16:43:45.208Z,2.90
2022-10-20T16:46:13.287Z,3.15
2022-10-20T16:48:42.697Z,3.00
2022-10-20T16:51:15.104Z,3.20
2022-10-20T16:53:42.553Z,2.88
2022-10-20T16:56:09.920Z,3.00
2022-10-20T16:58:37.466Z,3.05
2022-10-20T17:01:06.235Z,3.10
2022-10-20T17:03:33.928Z,3.33
2022-10-20T17:06:02.198Z,3.33
2022-10-20T17:08:31.986Z,3.53
2022-10-20T17:11:00.214Z,3.33
2022-10-20T17:13:27.825Z,3.10
2022-10-20T17:15:55.261Z,3.65
2022-10-20T17:18:23.719Z,3.70
2022-10-20T17:20:53.384Z,3.67
2022-10-20T17:23:20.947Z,3.47
2022-10-20T17:25:49.687Z,3.53
2022-10-20T17:28:17.040Z,3.97
2022-10-20T17:30:45.132Z,3.80
2022-10-20T17:33:12.596Z,3.83
2022-10-20T17:35:40.035Z,4.18
2022-10-20T17:38:07.436Z,3.78
2022-10-20T17:40:37.861Z,3.00
2022-10-20T17:43:06.625Z,3.33
2022-10-20T17:45:36.280Z,3.70
2022-10-20T17:48:05.590Z,3.35
2022-10-20T17:50:33.027Z,3.38
2022-10-20T17:53:00.426Z,3.42
2022-10-20T17:55:27.804Z,3.40
2022-10-20T17:57:55.208Z,3.80
2022-10-20T18:00:37.789Z,3.38
2022-10-20T18:03:11.271Z,4.10
2022-10-20T18:05:38.627Z,4.05
2022-10-20T18:08:06.138Z,3.28
2022-10-20T18:10:33.515Z,3.33
2022-10-20T18:13:00.848Z,3.42
2022-10-20T18:15:29.583Z,4.18
2022-10-20T18:17:56.890Z,3.63
2022-10-20T18:20:24.284Z,3.53
2022-10-20T18:22:51.672Z,3.58
2022-10-20T18:25:19.047Z,3.38
2022-10-20T18:27:46.374Z,3.65
2022-10-20T18:30:13.725Z,3.28
2022-10-20T18:32:42.460Z,3.70
2022-10-20T18:35:10.322Z,4.03
2022-10-20T18:37:38.071Z,3.53
2022-10-20T18:40:06.179Z,3.10
2022-10-20T18:42:34.208Z,3.42
2022-10-20T18:45:01.607Z,3.25
2022-10-20T18:47:28.969Z,3.42
2022-10-20T18:49:57.633Z,3.55
2022-10-20T18:52:24.997Z,2.75
2022-10-20T18:54:52.343Z,3.40
2022-10-20T18:57:19.702Z,2.90
2022-10-20T18:59:47.043Z,3.10
2022-10-20T19:02:14.382Z,3.30
2022-10-20T19:04:41.729Z,3.20
2022-10-20T19:07:10.398Z,3.03
2022-10-20T19:09:37.732Z,2.95
2022-10-20T19:12:08.161Z,3.35
2022-10-20T19:14:37.852Z,3.10
2022-10-20T19:17:05.195Z,3.13
2022-10-20T19:19:32.536Z,3.60
2022-10-20T19:21:59.858Z,3.05
2022-10-20T19:24:28.514Z,3.33
2022-10-20T19:27:24.631Z,2.97
2022-10-20T19:29:45.147Z,3.05
2022-10-20T19:32:12.596Z,3.10
2022-10-20T19:34:40.950Z,3.25
2022-10-20T19:37:08.729Z,3.00
2022-10-20T19:39:39.122Z,3.22
2022-10-20T19:42:07.154Z,2.83
2022-10-20T19:44:34.528Z,2.92
2022-10-20T19:47:02.125Z,3.60
2022-10-20T19:49:29.460Z,3.05
2022-10-20T19:51:56.858Z,3.00
2022-10-20T19:54:24.650Z,3.15
2022-10-20T19:56:53.366Z,2.88
2022-10-20T19:59:20.780Z,3.13
2022-10-20T20:01:49.583Z,2.70
2022-10-20T20:04:17.161Z,3.50
2022-10-20T20:06:44.546Z,2.95
2022-10-20T20:09:12.532Z,3.60
2022-10-20T20:11:40.068Z,3.45
2022-10-20T20:14:10.224Z,3.25
2022-10-20T20:16:37.741Z,3.13
2022-10-20T20:19:05.468Z,3.40
2022-10-20T20:21:33.095Z,3.83
2022-10-20T20:24:01.765Z,3.72
2022-10-20T20:26:29.369Z,3.72
2022-10-20T20:28:56.791Z,3.63
2022-10-20T20:31:25.786Z,3.58
2022-10-20T20:33:53.606Z,3.60
2022-10-20T20:36:20.951Z,3.67
2022-10-20T20:38:48.299Z,3.50
2022-10-20T20:41:16.888Z,3.70
2022-10-20T20:43:45.725Z,4.15
2022-10-20T20:46:14.142Z,3.55
2022-10-20T20:48:43.355Z,3.60
2022-10-20T20:51:11.292Z,3.22
2022-10-20T20:53:39.496Z,4.05
2022-10-20T20:56:08.268Z,3.90
2022-10-20T20:58:35.885Z,3.55
2022-10-20T21:01:03.928Z,3.35
2022-10-20T21:03:31.600Z,3.00
2022-10-20T21:06:03.241Z,3.35
2022-10-20T21:08:31.969Z,3.40
2022-10-20T21:11:04.721Z,4.15
2022-10-20T21:13:32.145Z,3.80
2022-10-20T21:16:07.376Z,3.03
2022-10-20T21:18:34.745Z,3.50
2022-10-20T21:21:08.513Z,3.72
2022-10-20T21:23:35.908Z,3.50
2022-10-20T21:26:03.399Z,3.40
2022-10-20T21:28:30.794Z,3.35
2022-10-20T21:31:00.962Z,3.58
2022-10-20T21:33:28.716Z,3.58
2022-10-20T21:35:59.899Z,3.63
2022-10-20T21:41:01.788Z,3.30
2022-10-20T21:43:29.531Z,3.28
2022-10-20T21:45:56.932Z,3.95
2022-10-20T21:48:24.359Z,3.28
2022-10-20T21:50:51.735Z,3.92
2022-10-20T21:53:19.120Z,3.63
2022-10-20T21:55:46.447Z,3.50
2022-10-20T21:58:15.124Z,3.45
2022-10-20T22:00:42.558Z,3.00
2022-10-20T22:03:09.936Z,3.17
2022-10-20T22:05:37.295Z,3.08
2022-10-20T22:08:04.725Z,3.42
2022-10-20T22:10:32.038Z,3.67
2022-10-20T22:12:59.388Z,3.20
2022-10-20T22:15:28.055Z,3.58
2022-10-20T22:17:55.422Z,3.33
2022-10-20T22:20:22.846Z,3.83
2022-10-20T22:22:50.220Z,3.58
2022-10-20T22:25:17.616Z,3.20
2022-10-20T22:27:46.045Z,3.60
2022-10-20T22:30:13.495Z,3.67
2022-10-20T22:32:42.224Z,3.53
2022-10-20T22:35:09.784Z,3.80
2022-10-20T22:37:37.144Z,3.28
2022-10-20T22:40:04.712Z,3.70
2022-10-20T22:42:32.058Z,3.60
2022-10-20T22:44:59.442Z,3.85
2022-10-20T22:47:26.794Z,3.42
2022-10-20T22:49:55.479Z,3.72
2022-10-20T22:52:22.798Z,3.88
2022-10-20T22:54:50.143Z,3.95
2022-10-20T22:57:17.474Z,4.38
2022-10-20T22:59:44.836Z,4.47
2022-10-20T23:02:12.209Z,3.65
2022-10-20T23:04:39.559Z,3.92
2022-10-20T23:07:08.243Z,4.35
2022-10-20T23:09:35.714Z,4.43
2022-10-20T23:12:03.042Z,3.22
2022-10-20T23:14:30.417Z,4.03
2022-10-20T23:16:57.806Z,4.15
2022-10-20T23:19:25.161Z,4.28
2022-10-20T23:21:52.549Z,4.20
2022-10-20T23:24:21.291Z,4.40
2022-10-20T23:26:48.666Z,4.55
2022-10-20T23:29:16.050Z,4.38
2022-10-20T23:31:43.379Z,4.03
2022-10-20T23:34:10.718Z,4.47
2022-10-20T23:36:39.167Z,4.13
2022-10-20T23:39:06.785Z,4.28
2022-10-20T23:41:35.500Z,4.78
2022-10-20T23:44:02.852Z,4.10
2022-10-20T23:46:32.219Z,4.78
2022-10-20T23:48:59.624Z,4.43
2022-10-20T23:51:26.972Z,4.53
2022-10-20T23:53:54.302Z,4.60
2022-10-20T23:56:21.659Z,4.30
2022-10-20T23:58:50.370Z,4.30
